createdAt,value
2019-06-28T00:01:38.790Z,28.80
2019-06-28T00:04:08.510Z,28.70
2019-06-28T00:06:37.588Z,28.70
2019-06-28T00:09:06.909Z,28.70
2019-06-28T00:11:36.456Z,28.70
2019-06-28T00:14:05.654Z,28.70
2019-06-28T00:16:34.983Z,28.70
2019-06-28T00:19:03.976Z,28.70
2019-06-28T00:21:33.167Z,28.70
2019-06-28T00:24:02.160Z,28.70
2019-06-28T00:26:31.438Z,28.70
2019-06-28T00:29:00.787Z,28.70
2019-06-28T00:31:29.862Z,28.70
2019-06-28T00:33:59.343Z,28.70
2019-06-28T00:36:28.407Z,28.70
2019-06-28T00:38:57.475Z,28.70
2019-06-28T00:41:26.448Z,28.60
2019-06-28T00:43:55.507Z,28.60
2019-06-28T00:46:24.551Z,28.70
2019-06-28T00:48:53.761Z,28.70
2019-06-28T00:51:23.142Z,28.70
2019-06-28T00:53:52.342Z,28.70
2019-06-28T00:56:21.408Z,28.60
2019-06-28T00:58:50.497Z,28.60
2019-06-28T01:01:20.048Z,28.70
2019-06-28T01:03:49.176Z,28.70
2019-06-28T01:06:18.163Z,28.70
2019-06-28T01:08:47.490Z,28.70
2019-06-28T01:11:16.513Z,28.60
2019-06-28T01:13:45.575Z,28.60
2019-06-28T01:16:14.560Z,28.70
2019-06-28T01:18:43.555Z,28.40
2019-06-28T01:21:12.628Z,28.60
2019-06-28T01:23:41.694Z,28.60
2019-06-28T01:26:10.825Z,28.60
2019-06-28T01:28:40.048Z,28.60
2019-06-28T01:31:09.167Z,28.60
2019-06-28T01:33:38.169Z,28.60
2019-06-28T01:36:07.214Z,28.60
2019-06-28T01:38:36.187Z,28.70
2019-06-28T01:41:05.187Z,28.60
2019-06-28T01:43:34.476Z,28.50
2019-06-28T01:46:03.468Z,28.60
2019-06-28T01:48:32.546Z,28.60
2019-06-28T01:51:01.706Z,28.60
2019-06-28T01:53:30.930Z,28.60
2019-06-28T01:56:00.050Z,28.60
2019-06-28T01:58:29.108Z,28.50
2019-06-28T02:00:58.245Z,28.60
2019-06-28T02:03:27.435Z,28.60
2019-06-28T02:05:56.458Z,28.60
2019-06-28T02:08:25.595Z,28.60
2019-06-28T02:10:54.883Z,28.60
2019-06-28T02:13:24.021Z,28.50
2019-06-28T02:15:53.167Z,28.50
2019-06-28T02:18:22.652Z,28.60
2019-06-28T02:20:52.088Z,28.60
2019-06-28T02:23:21.292Z,28.50
2019-06-28T02:25:50.367Z,28.50
2019-06-28T02:28:19.401Z,28.60
2019-06-28T02:30:48.601Z,28.60
2019-06-28T02:33:17.673Z,28.60
2019-06-28T02:35:46.747Z,28.50
2019-06-28T02:38:15.953Z,28.60
2019-06-28T02:40:45.017Z,28.60
2019-06-28T02:43:14.090Z,28.50
2019-06-28T02:45:43.220Z,28.50
2019-06-28T02:48:12.455Z,28.50
2019-06-28T02:50:41.516Z,28.50
2019-06-28T02:53:10.540Z,28.50
2019-06-28T02:55:39.615Z,28.50
2019-06-28T02:58:08.730Z,28.50
2019-06-28T03:00:41.046Z,28.50
2019-06-28T03:03:10.062Z,28.50
2019-06-28T03:05:39.266Z,28.50
2019-06-28T03:08:08.444Z,28.50
2019-06-28T03:10:37.616Z,28.50
2019-06-28T03:13:07.060Z,28.50
2019-06-28T03:15:36.295Z,28.50
2019-06-28T03:18:05.365Z,28.50
2019-06-28T03:20:34.580Z,28.50
2019-06-28T03:23:03.574Z,28.50
2019-06-28T03:25:33.492Z,28.50
2019-06-28T03:28:02.800Z,28.50
2019-06-28T03:30:31.946Z,28.50
2019-06-28T03:33:01.162Z,28.40
2019-06-28T03:35:30.215Z,28.40
2019-06-28T03:37:59.286Z,28.40
2019-06-28T03:40:28.420Z,28.40
2019-06-28T03:42:57.563Z,28.40
2019-06-28T03:45:26.631Z,28.40
2019-06-28T03:47:55.891Z,28.40
2019-06-28T03:50:24.923Z,28.40
2019-06-28T03:52:54.034Z,28.40
2019-06-28T03:55:23.170Z,28.40
2019-06-28T03:57:52.332Z,28.40
2019-06-28T04:00:21.457Z,28.40
2019-06-28T04:02:50.527Z,28.40
2019-06-28T04:05:19.669Z,28.40
2019-06-28T04:07:48.793Z,28.40
2019-06-28T04:10:17.870Z,28.40
2019-06-28T04:12:46.928Z,28.40
2019-06-28T04:15:16.162Z,28.40
2019-06-28T04:17:45.277Z,28.40
2019-06-28T04:20:14.370Z,28.40
2019-06-28T04:22:43.927Z,28.40
2019-06-28T04:25:13.066Z,28.30
2019-06-28T04:27:42.302Z,28.40
2019-06-28T04:30:14.504Z,28.30
2019-06-28T04:32:42.335Z,28.30
2019-06-28T04:35:11.916Z,28.40
2019-06-28T04:37:41.144Z,28.30
2019-06-28T04:40:10.219Z,28.30
2019-06-28T04:42:39.347Z,28.30
2019-06-28T04:45:08.547Z,28.30
2019-06-28T04:47:39.856Z,28.30
2019-06-28T04:50:08.481Z,28.20
2019-06-28T04:52:37.836Z,28.20
2019-06-28T04:55:07.943Z,28.10
2019-06-28T04:57:37.155Z,28.10
2019-06-28T05:00:06.376Z,28.00
2019-06-28T05:02:35.446Z,28.10
2019-06-28T05:05:04.522Z,28.00
2019-06-28T05:07:33.592Z,28.10
2019-06-28T05:10:02.565Z,28.00
2019-06-28T05:12:31.687Z,28.00
2019-06-28T05:15:06.425Z,28.00
2019-06-28T05:17:34.434Z,28.00
2019-06-28T05:20:03.593Z,28.00
2019-06-28T05:22:32.657Z,28.00
2019-06-28T05:25:01.722Z,28.00
2019-06-28T05:27:30.804Z,28.00
2019-06-28T05:29:59.861Z,28.00
2019-06-28T05:32:28.921Z,28.00
2019-06-28T05:34:57.969Z,28.00
2019-06-28T05:37:27.009Z,28.00
2019-06-28T05:39:56.072Z,28.00
2019-06-28T05:42:25.122Z,28.00
2019-06-28T05:44:54.519Z,28.10
2019-06-28T05:47:23.630Z,28.10
2019-06-28T05:49:52.610Z,28.10
2019-06-28T05:52:21.605Z,28.10
2019-06-28T05:54:50.795Z,28.20
2019-06-28T05:57:21.762Z,28.20
2019-06-28T05:59:50.837Z,28.20
2019-06-28T06:02:19.828Z,28.30
2019-06-28T06:04:48.823Z,28.30
2019-06-28T06:07:18.370Z,28.40
2019-06-28T06:09:47.407Z,28.40
2019-06-28T06:12:16.441Z,28.40
2019-06-28T06:14:45.870Z,28.50
2019-06-28T06:17:14.847Z,28.40
2019-06-28T06:19:43.854Z,28.50
2019-06-28T06:22:12.924Z,28.50
2019-06-28T06:24:41.971Z,28.50
2019-06-28T06:27:14.362Z,28.50
2019-06-28T06:29:43.423Z,28.50
2019-06-28T06:32:12.478Z,28.60
2019-06-28T06:34:41.551Z,28.60
2019-06-28T06:37:10.662Z,28.60
2019-06-28T06:39:39.635Z,28.60
2019-06-28T06:42:08.610Z,28.60
2019-06-28T06:44:37.555Z,28.60
2019-06-28T06:47:06.760Z,28.60
2019-06-28T06:49:35.922Z,28.70
2019-06-28T06:52:05.097Z,28.70
2019-06-28T06:54:34.171Z,28.70
2019-06-28T06:57:03.324Z,28.70
2019-06-28T06:59:32.368Z,28.70
2019-06-28T07:02:01.444Z,28.70
2019-06-28T07:04:30.570Z,28.70
2019-06-28T07:06:59.923Z,28.70
2019-06-28T07:09:29.048Z,28.80
2019-06-28T07:11:58.310Z,28.80
2019-06-28T07:14:42.974Z,28.80
2019-06-28T07:16:58.158Z,28.80
2019-06-28T07:19:27.216Z,28.80
2019-06-28T07:21:56.278Z,28.80
2019-06-28T07:24:25.402Z,28.90
2019-06-28T07:26:54.554Z,28.90
2019-06-28T07:29:23.614Z,28.90
2019-06-28T07:31:52.711Z,28.90
2019-06-28T07:34:21.762Z,28.90
2019-06-28T07:36:53.083Z,29.00
2019-06-28T07:39:21.784Z,29.00
2019-06-28T07:41:50.861Z,29.00
2019-06-28T07:44:19.841Z,29.00
2019-06-28T07:46:48.977Z,28.90
2019-06-28T07:49:18.050Z,29.00
2019-06-28T07:51:47.026Z,29.00
2019-06-28T07:54:16.076Z,29.00
2019-06-28T07:56:45.134Z,29.00
2019-06-28T07:59:14.193Z,29.00
2019-06-28T08:01:43.377Z,29.00
2019-06-28T08:04:15.309Z,29.00
2019-06-28T08:06:44.317Z,29.00
2019-06-28T08:09:13.367Z,29.00
2019-06-28T08:11:42.488Z,29.00
2019-06-28T08:14:11.635Z,29.00
2019-06-28T08:16:40.650Z,29.00
2019-06-28T08:19:09.761Z,29.00
2019-06-28T08:21:39.030Z,29.00
2019-06-28T08:24:08.163Z,29.00
2019-06-28T08:26:37.211Z,29.10
2019-06-28T08:29:06.386Z,29.10
2019-06-28T08:31:35.545Z,29.10
2019-06-28T08:34:04.542Z,29.10
2019-06-28T08:36:33.536Z,29.10
2019-06-28T08:39:02.633Z,29.10
2019-06-28T08:41:31.639Z,29.10
2019-06-28T08:44:03.665Z,29.10
2019-06-28T08:46:36.084Z,29.10
2019-06-28T08:49:03.699Z,29.10
2019-06-28T08:51:32.818Z,29.10
2019-06-28T08:54:01.878Z,29.10
2019-06-28T08:56:31.020Z,29.10
2019-06-28T09:01:30.800Z,29.10
2019-06-28T09:04:03.079Z,29.10
2019-06-28T09:06:32.186Z,29.20
2019-06-28T09:09:01.319Z,29.20
2019-06-28T09:11:30.354Z,29.20
2019-06-28T09:13:59.423Z,29.20
2019-06-28T09:16:28.410Z,29.20
2019-06-28T09:18:57.386Z,29.20
2019-06-28T09:21:26.561Z,29.20
2019-06-28T09:23:55.701Z,29.20
2019-06-28T09:26:24.775Z,29.20
2019-06-28T09:28:53.914Z,29.20
2019-06-28T09:31:22.905Z,29.20
2019-06-28T09:33:52.052Z,29.20
2019-06-28T09:36:21.119Z,29.20
2019-06-28T09:38:50.332Z,29.20
2019-06-28T09:41:19.372Z,29.30
2019-06-28T09:43:48.492Z,29.40
2019-06-28T09:46:20.316Z,29.40
2019-06-28T09:48:49.362Z,29.40
2019-06-28T09:51:18.410Z,29.40
2019-06-28T09:53:47.525Z,29.40
2019-06-28T09:56:16.571Z,29.60
2019-06-28T09:58:50.418Z,29.60
2019-06-28T10:01:20.000Z,29.60
2019-06-28T10:03:49.141Z,29.70
2019-06-28T10:06:18.285Z,29.70
2019-06-28T10:08:47.363Z,29.80
2019-06-28T10:11:16.525Z,29.80
2019-06-28T10:13:46.029Z,29.80
2019-06-28T10:16:25.016Z,29.90
2019-06-28T10:18:45.945Z,29.90
2019-06-28T10:21:15.434Z,29.90
2019-06-28T10:23:44.526Z,29.90
2019-06-28T10:26:13.733Z,30.00
2019-06-28T10:28:43.040Z,30.00
2019-06-28T10:31:12.114Z,30.00
2019-06-28T10:33:41.742Z,30.00
2019-06-28T10:36:11.023Z,30.00
2019-06-28T10:38:40.185Z,30.00
2019-06-28T10:41:10.369Z,30.10
2019-06-28T10:43:40.624Z,30.10
2019-06-28T10:46:10.216Z,30.10
2019-06-28T10:48:39.284Z,30.10
2019-06-28T10:51:08.520Z,30.10
2019-06-28T10:53:37.583Z,30.10
2019-06-28T10:56:06.704Z,30.10
2019-06-28T10:58:35.795Z,30.10
2019-06-28T11:01:06.282Z,30.10
2019-06-28T11:03:35.415Z,30.10
2019-06-28T11:06:08.065Z,30.20
2019-06-28T11:08:37.201Z,30.20
2019-06-28T11:11:06.418Z,30.20
2019-06-28T11:13:35.554Z,30.20
2019-06-28T11:16:04.769Z,30.20
2019-06-28T11:18:34.265Z,30.20
2019-06-28T11:21:03.497Z,30.20
2019-06-28T11:23:33.015Z,30.20
2019-06-28T11:26:02.194Z,30.20
2019-06-28T11:28:31.260Z,30.20
2019-06-28T11:31:00.414Z,30.20
2019-06-28T11:33:29.640Z,30.20
2019-06-28T11:35:58.852Z,30.30
2019-06-28T11:38:28.277Z,30.30
2019-06-28T11:40:57.499Z,30.30
2019-06-28T11:43:26.493Z,30.30
2019-06-28T11:45:55.638Z,30.30
2019-06-28T11:48:24.629Z,30.30
2019-06-28T11:50:53.793Z,30.30
2019-06-28T11:53:22.798Z,30.30
2019-06-28T11:55:51.947Z,30.30
2019-06-28T11:58:21.435Z,30.30
2019-06-28T12:00:50.957Z,30.30
2019-06-28T12:03:23.906Z,30.30
2019-06-28T12:05:50.907Z,30.30
2019-06-28T12:08:19.992Z,30.30
2019-06-28T12:10:50.411Z,30.40
2019-06-28T12:13:19.411Z,30.40
2019-06-28T12:15:48.559Z,30.40
2019-06-28T12:18:18.327Z,30.40
2019-06-28T12:20:47.495Z,30.40
2019-06-28T12:23:16.565Z,30.40
2019-06-28T12:25:45.587Z,30.40
2019-06-28T12:28:14.749Z,30.40
2019-06-28T12:30:43.982Z,30.40
2019-06-28T12:33:13.117Z,30.40
2019-06-28T12:35:43.811Z,30.40
2019-06-28T12:38:12.972Z,30.40
2019-06-28T12:40:42.120Z,30.40
2019-06-28T12:43:12.369Z,30.40
2019-06-28T12:45:42.283Z,30.40
2019-06-28T12:48:11.542Z,30.50
2019-06-28T12:50:40.600Z,30.50
2019-06-28T12:53:09.752Z,30.50
2019-06-28T12:55:39.293Z,30.50
2019-06-28T12:58:08.527Z,30.50
2019-06-28T13:00:37.549Z,30.50
2019-06-28T13:03:06.661Z,30.50
2019-06-28T13:05:35.850Z,30.50
2019-06-28T13:08:05.005Z,30.50
2019-06-28T13:10:34.816Z,30.50
2019-06-28T13:13:04.144Z,30.50
2019-06-28T13:15:33.214Z,30.50
2019-06-28T13:18:05.892Z,30.50
2019-06-28T13:20:33.177Z,30.50
2019-06-28T13:23:08.007Z,30.50
2019-06-28T13:25:33.060Z,30.50
2019-06-28T13:28:02.204Z,30.50
2019-06-28T13:30:31.405Z,30.50
2019-06-28T13:33:00.515Z,30.50
2019-06-28T13:35:29.661Z,30.50
2019-06-28T13:37:58.711Z,30.50
2019-06-28T13:40:27.925Z,30.50
2019-06-28T13:42:59.855Z,30.50
2019-06-28T13:45:28.935Z,30.50
2019-06-28T13:47:58.205Z,30.50
2019-06-28T13:50:27.412Z,30.50
2019-06-28T13:52:56.551Z,30.50
2019-06-28T13:55:27.005Z,30.50
2019-06-28T13:57:56.166Z,30.50
2019-06-28T14:00:25.320Z,30.50
2019-06-28T14:02:54.345Z,30.50
2019-06-28T14:05:23.438Z,30.50
2019-06-28T14:07:52.850Z,30.50
2019-06-28T14:10:22.198Z,30.50
2019-06-28T14:12:51.346Z,30.50
2019-06-28T14:15:20.694Z,30.50
2019-06-28T14:17:49.818Z,30.50
2019-06-28T14:20:18.917Z,30.50
2019-06-28T14:22:48.142Z,30.50
2019-06-28T14:25:17.735Z,30.50
2019-06-28T14:27:46.952Z,30.50
2019-06-28T14:30:16.033Z,30.50
2019-06-28T14:32:45.270Z,30.50
2019-06-28T14:35:17.526Z,30.50
2019-06-28T14:37:46.570Z,30.50
2019-06-28T14:40:15.719Z,30.50
2019-06-28T14:42:45.800Z,30.50
2019-06-28T14:45:14.966Z,30.50
2019-06-28T14:47:44.215Z,30.50
2019-06-28T14:50:13.209Z,30.50
2019-06-28T14:52:42.193Z,30.50
2019-06-28T14:55:11.912Z,30.50
2019-06-28T14:57:40.986Z,30.50
2019-06-28T15:00:12.878Z,30.50
2019-06-28T15:02:41.995Z,30.50
2019-06-28T15:05:11.699Z,30.50
2019-06-28T15:07:41.028Z,30.50
2019-06-28T15:10:10.933Z,30.50
2019-06-28T15:12:40.060Z,30.50
2019-06-28T15:15:09.136Z,30.50
2019-06-28T15:17:38.215Z,30.50
2019-06-28T15:20:07.397Z,30.50
2019-06-28T15:22:36.482Z,30.50
2019-06-28T15:25:05.740Z,30.50
2019-06-28T15:27:34.822Z,30.50
2019-06-28T15:30:03.975Z,30.50
2019-06-28T15:32:33.232Z,30.50
2019-06-28T15:35:02.448Z,30.50
2019-06-28T15:37:31.893Z,30.50
2019-06-28T15:40:01.036Z,30.50
2019-06-28T15:42:30.992Z,30.40
2019-06-28T15:45:00.158Z,30.50
2019-06-28T15:47:29.332Z,30.40
2019-06-28T15:49:58.498Z,30.40
2019-06-28T15:52:27.654Z,30.40
2019-06-28T15:54:56.903Z,30.40
2019-06-28T15:57:26.156Z,30.40
2019-06-28T15:59:55.705Z,30.40
2019-06-28T16:02:24.736Z,30.40
2019-06-28T16:04:53.927Z,30.40
2019-06-28T16:07:23.074Z,30.40
2019-06-28T16:09:52.123Z,30.40
2019-06-28T16:12:21.307Z,30.40
2019-06-28T16:14:50.466Z,30.40
2019-06-28T16:17:19.546Z,30.30
2019-06-28T16:19:48.634Z,30.30
2019-06-28T16:22:17.663Z,30.30
2019-06-28T16:24:46.684Z,30.30
2019-06-28T16:27:16.417Z,30.30
2019-06-28T16:29:45.472Z,30.30
2019-06-28T16:32:14.634Z,30.30
2019-06-28T16:34:43.730Z,30.30
2019-06-28T16:37:13.311Z,30.20
2019-06-28T16:39:42.537Z,30.20
2019-06-28T16:42:11.715Z,30.20
2019-06-28T16:44:41.183Z,30.20
2019-06-28T16:47:10.453Z,30.20
2019-06-28T16:49:40.142Z,30.20
2019-06-28T16:52:09.253Z,30.20
2019-06-28T16:54:38.520Z,30.20
2019-06-28T16:57:07.935Z,30.10
2019-06-28T16:59:37.129Z,30.00
2019-06-28T17:02:06.327Z,30.00
2019-06-28T17:04:35.576Z,30.00
2019-06-28T17:07:04.795Z,29.90
2019-06-28T17:09:33.916Z,29.90
2019-06-28T17:12:03.367Z,29.80
2019-06-28T17:14:32.584Z,29.70
2019-06-28T17:17:01.705Z,29.70
2019-06-28T17:19:30.818Z,29.70
2019-06-28T17:21:59.902Z,29.70
2019-06-28T17:24:29.654Z,29.60
2019-06-28T17:26:58.970Z,29.60
2019-06-28T17:29:28.150Z,29.60
2019-06-28T17:31:59.528Z,29.60
2019-06-28T17:34:28.724Z,29.60
2019-06-28T17:36:57.769Z,29.60
2019-06-28T17:39:26.973Z,29.50
2019-06-28T17:41:56.646Z,29.50
2019-06-28T17:44:25.855Z,29.50
2019-06-28T17:46:55.011Z,29.50
2019-06-28T17:49:24.079Z,29.50
2019-06-28T17:51:53.234Z,29.50
2019-06-28T17:54:22.436Z,29.40
2019-06-28T17:56:52.210Z,29.40
2019-06-28T17:59:21.298Z,29.40
2019-06-28T18:01:50.488Z,29.40
2019-06-28T18:04:19.754Z,29.40
2019-06-28T18:06:48.968Z,29.40
2019-06-28T18:09:18.200Z,29.40
2019-06-28T18:11:47.336Z,29.40
2019-06-28T18:14:16.677Z,29.30
2019-06-28T18:16:45.719Z,29.30
2019-06-28T18:19:15.897Z,29.30
2019-06-28T18:21:45.134Z,29.30
2019-06-28T18:24:14.317Z,29.30
2019-06-28T18:26:43.527Z,29.30
2019-06-28T18:29:12.661Z,29.30
2019-06-28T18:31:41.889Z,29.30
2019-06-28T18:34:11.040Z,29.30
2019-06-28T18:36:40.248Z,29.30
2019-06-28T18:39:09.513Z,29.20
2019-06-28T18:41:38.627Z,29.30
2019-06-28T18:44:07.807Z,29.20
2019-06-28T18:46:36.980Z,29.20
2019-06-28T18:49:06.052Z,29.20
2019-06-28T18:51:35.310Z,29.20
2019-06-28T18:54:04.433Z,29.20
2019-06-28T18:56:33.513Z,29.20
2019-06-28T18:59:02.666Z,29.20
2019-06-28T19:01:31.811Z,29.10
2019-06-28T19:04:00.973Z,29.20
2019-06-28T19:06:30.036Z,29.10
2019-06-28T19:08:59.591Z,29.10
2019-06-28T19:11:28.949Z,29.10
2019-06-28T19:13:58.184Z,29.20
2019-06-28T19:16:27.377Z,29.10
2019-06-28T19:18:56.532Z,29.10
2019-06-28T19:21:26.083Z,29.10
2019-06-28T19:23:55.197Z,29.10
2019-06-28T19:26:24.477Z,29.10
2019-06-28T19:28:53.629Z,29.10
2019-06-28T19:31:22.736Z,29.10
2019-06-28T19:33:51.959Z,29.10
2019-06-28T19:36:21.547Z,29.10
2019-06-28T19:38:50.680Z,29.10
2019-06-28T19:41:19.879Z,29.00
2019-06-28T19:43:48.972Z,29.00
2019-06-28T19:46:18.017Z,29.00
2019-06-28T19:48:47.138Z,29.00
2019-06-28T19:51:16.382Z,29.00
2019-06-28T19:53:45.689Z,29.00
2019-06-28T19:56:14.931Z,29.00
2019-06-28T19:58:44.121Z,29.00
2019-06-28T20:01:13.407Z,28.90
2019-06-28T20:03:42.629Z,29.00
2019-06-28T20:06:13.609Z,28.90
2019-06-28T20:08:42.913Z,28.90
2019-06-28T20:11:12.037Z,28.90
2019-06-28T20:13:42.296Z,28.90
2019-06-28T20:16:11.634Z,28.90
2019-06-28T20:18:41.129Z,28.90
2019-06-28T20:21:10.708Z,28.90
2019-06-28T20:23:39.939Z,28.90
2019-06-28T20:26:09.221Z,28.90
2019-06-28T20:28:38.467Z,28.90
2019-06-28T20:31:09.937Z,28.90
2019-06-28T20:33:38.990Z,28.90
2019-06-28T20:36:08.135Z,28.90
2019-06-28T20:38:37.510Z,28.90
2019-06-28T20:41:09.294Z,28.80
2019-06-28T20:43:37.435Z,28.80
2019-06-28T20:46:06.750Z,28.80
2019-06-28T20:48:36.140Z,28.80
2019-06-28T20:51:05.393Z,28.80
2019-06-28T20:53:34.793Z,28.80
2019-06-28T20:56:03.808Z,28.80
2019-06-28T20:58:32.974Z,28.80
2019-06-28T21:01:02.241Z,28.80
2019-06-28T21:03:31.402Z,28.80
2019-06-28T21:06:00.406Z,28.80
2019-06-28T21:08:29.568Z,28.80
2019-06-28T21:10:58.774Z,28.70
2019-06-28T21:13:27.835Z,28.70
2019-06-28T21:15:57.031Z,28.70
2019-06-28T21:18:26.227Z,28.70
2019-06-28T21:20:55.344Z,28.80
2019-06-28T21:23:24.533Z,28.80
2019-06-28T21:25:53.614Z,28.80
2019-06-28T21:28:22.665Z,28.70
2019-06-28T21:30:51.848Z,28.70
2019-06-28T21:33:21.129Z,28.70
2019-06-28T21:35:50.898Z,28.70
2019-06-28T21:38:20.251Z,28.70
2019-06-28T21:40:49.309Z,28.70
2019-06-28T21:43:18.508Z,28.70
2019-06-28T21:45:47.566Z,28.60
2019-06-28T21:48:16.741Z,28.70
2019-06-28T21:50:46.159Z,28.60
2019-06-28T21:53:15.307Z,28.60
2019-06-28T21:55:44.351Z,28.70
2019-06-28T21:58:13.471Z,28.60
2019-06-28T22:00:48.954Z,28.60
2019-06-28T22:03:18.763Z,28.60
2019-06-28T22:05:47.924Z,28.70
2019-06-28T22:08:17.102Z,28.60
2019-06-28T22:10:46.223Z,28.60
2019-06-28T22:13:15.429Z,28.60
2019-06-28T22:15:44.692Z,28.60
2019-06-28T22:18:13.904Z,28.60
2019-06-28T22:20:43.027Z,28.60
2019-06-28T22:23:12.405Z,28.60
2019-06-28T22:25:41.533Z,28.60
2019-06-28T22:28:10.655Z,28.60
2019-06-28T22:30:39.795Z,28.50
2019-06-28T22:33:09.047Z,28.50
2019-06-28T22:35:38.097Z,28.60
2019-06-28T22:38:07.274Z,28.60
2019-06-28T22:40:36.420Z,28.60
2019-06-28T22:43:05.657Z,28.50
2019-06-28T22:45:35.194Z,28.50
2019-06-28T22:48:04.414Z,28.50
2019-06-28T22:50:33.553Z,28.60
2019-06-28T22:53:02.541Z,28.60
2019-06-28T22:55:31.670Z,28.50
2019-06-28T22:58:00.814Z,28.50
2019-06-28T23:00:29.872Z,28.60
2019-06-28T23:02:58.960Z,28.50
2019-06-28T23:05:28.600Z,28.50
2019-06-28T23:07:58.237Z,28.50
2019-06-28T23:10:27.351Z,28.50
2019-06-28T23:12:56.487Z,28.50
2019-06-28T23:15:25.821Z,28.50
2019-06-28T23:17:55.024Z,28.50
2019-06-28T23:20:24.172Z,28.50
2019-06-28T23:22:53.752Z,28.50
2019-06-28T23:25:23.009Z,28.40
2019-06-28T23:27:52.249Z,28.40
2019-06-28T23:30:21.493Z,28.40
2019-06-28T23:32:50.567Z,28.50
2019-06-28T23:35:19.675Z,28.60
2019-06-28T23:37:48.823Z,28.50
2019-06-28T23:40:17.990Z,28.60
2019-06-28T23:42:47.070Z,28.60
2019-06-28T23:45:16.132Z,28.50
2019-06-28T23:47:45.154Z,28.60
2019-06-28T23:50:14.303Z,28.60
2019-06-28T23:52:43.429Z,28.50
2019-06-28T23:55:12.668Z,28.50
2019-06-28T23:57:42.528Z,28.50
